Latest Weather Observations for Paraburdoo

IDW60801

Issued at 7:32 pm WST Friday 22 May 2015 (issued every 30 minutes, with the page automatically refreshed every 10 minutes)

About weather observations | Map of weather stations | Latest weather observations for WA | Other Formats
Station Details ID: 007185 Name: PARABURDOO AERO Lat: -23.17 Lon: 117.75 Height: 423.7 m
Data from the previous 72 hours. | See also: Recent months at Paraburdoo
Date/Time
WST
Temp
°C
App
Temp
°C
Dew
Point
Rel
Hum
%
Delta-T
°C
Wind Press
QNH
hPa
Press
MSL
hPa
Rain
since 9 am
mm
Dir
 
Spd
km/h
Gust
km/h
Spd
kts
Gust
kts
22/07:30pm 22.0 20.9 15.4 66 4.0 NW 15 24 8 13 1019.1 1017.2 0.0
22/07:00pm 23.0 22.0 14.6 59 5.0 N 13 17 7 9 1018.3 1016.5 0.0
22/06:30pm 23.4 21.5 14.1 56 5.6 N 17 24 9 13 1017.9 1016.1 0.0
22/06:00pm 23.7 22.1 13.8 53 5.9 NNE 15 20 8 11 1017.2 1015.3 0.0
22/05:30pm 23.7 22.2 13.0 51 6.3 NNE 13 15 7 8 1016.9 1015.0 0.0
22/05:00pm 24.2 22.2 12.8 49 6.7 N 15 20 8 11 1016.7 1014.8 0.0
22/04:30pm 24.8 21.6 13.0 47 7.0 N 22 30 12 16 1016.7 1014.8 0.0
22/04:00pm 26.1 22.4 11.4 39 8.5 N 22 30 12 16 1016.5 1014.6 0.0
22/03:30pm 26.8 23.8 12.1 40 8.6 NNW 19 26 10 14 1016.3 1014.4 0.0
22/03:00pm 27.8 24.7 12.2 38 9.2 NNW 20 30 11 16 1016.4 1014.5 0.0
22/02:30pm 26.5 23.3 11.4 39 8.8 NNE 19 24 10 13 1016.7 1014.8 0.0
22/02:00pm 26.9 24.5 12.5 40 8.5 NNE 17 24 9 13 1016.8 1014.9 0.0
22/01:30pm 26.8 24.0 13.2 43 8.1 NNE 20 30 11 16 1017.1 1015.2 0.0
22/01:00pm 25.4 22.5 12.9 45 7.4 NNE 20 28 11 15 1017.9 1016.1 0.0
22/12:30pm 24.4 23.3 14.2 53 6.1 ENE 13 20 7 11 1018.4 1016.6 0.0
22/12:00pm 23.4 21.5 14.1 56 5.6 ENE 17 22 9 12 1019.1 1017.2 0.0
22/11:30am 23.3 21.0 14.0 56 5.5 ENE 19 26 10 14 1019.6 1017.8 0.0
22/11:00am 22.3 20.1 14.4 61 4.7 ENE 19 26 10 14 1020.0 1018.2 0.0
22/10:30am 21.9 20.6 16.8 73 3.2 ENE 19 24 10 13 1020.4 1018.6 0.0
22/10:00am 19.5 17.9 16.0 80 2.1 ENE 19 24 10 13 1020.8 1019.0 0.0
22/09:30am 19.4 17.9 16.2 82 1.9 ENE 19 24 10 13 1020.8 1019.0 0.0
22/09:00am 19.1 19.2 17.4 90 1.1 NE 13 19 7 10 1020.7 1018.9 0.2
22/08:30am 19.2 18.1 15.3 78 2.3 ENE 15 19 8 10 1020.5 1018.7 0.0
22/08:00am 18.5 17.9 15.6 83 1.7 ENE 13 17 7 9 1020.6 1018.8 0.0
22/07:30am 17.9 16.7 16.2 90 1.0 NE 17 20 9 11 1020.3 1018.5 0.0
22/07:00am 17.5 16.7 16.0 91 0.9 ENE 15 20 8 11 1020.0 1018.2 0.0
22/06:30am 17.7 17.0 15.5 87 1.3 ENE 13 17 7 9 1019.8 1018.0 0.0
22/06:00am 17.6 17.4 14.7 83 1.7 ENE 9 15 5 8 1019.5 1017.7 0.0
22/05:30am 18.2 16.7 14.3 78 2.3 NE 15 19 8 10 1019.3 1017.4 0.0
22/05:00am 18.3 15.8 13.6 74 2.7 NE 19 28 10 15 1019.3 1017.4 0.0
22/04:30am 18.5 16.7 13.4 72 2.9 NE 15 20 8 11 1019.3 1017.4 0.0
22/04:00am 18.1 16.3 13.2 73 2.8 ENE 15 19 8 10 1019.3 1017.4 0.0
22/03:30am 18.3 16.5 13.4 73 2.8 ENE 15 22 8 12 1019.1 1017.2 0.0
22/03:00am 18.5 16.2 13.1 71 3.1 ENE 17 22 9 12 1019.0 1017.1 0.0
22/02:30am 18.3 17.0 13.6 74 2.7 ENE 13 19 7 10 1019.1 1017.2 0.0
22/02:00am 18.7 16.8 13.1 70 3.2 ENE 15 20 8 11 1019.2 1017.3 0.0
22/01:30am 18.7 16.4 13.1 70 3.2 ENE 17 20 9 11 1019.3 1017.4 0.0
22/01:00am 18.8 16.6 13.2 70 3.2 ENE 17 20 9 11 1019.1 1017.2 0.0
22/12:30am 18.7 16.9 13.3 71 3.1 NE 15 19 8 10 1019.4 1017.6 0.0
22/12:00am 18.4 17.0 13.5 73 2.8 ENE 13 19 7 10 1019.3 1017.4 0.0
 
Date/Time
WST
Temp
°C
App
Temp
°C
Dew
Point
Rel
Hum
%
Delta-T
°C
Wind Press
QNH
hPa
Press
MSL
hPa
Rain
since 9 am
mm
Dir
 
Spd
km/h
Gust
km/h
Spd
kts
Gust
kts
21/11:30pm 17.9 16.3 13.8 77 2.4 ENE 15 19 8 10 1019.5 1017.7 0.0
21/11:00pm 17.3 15.3 13.8 80 2.0 ENE 17 22 9 12 1019.5 1017.7 0.0
21/10:30pm 17.4 15.0 13.9 80 2.0 ENE 19 24 10 13 1019.6 1017.8 0.0
21/10:00pm 17.6 16.1 14.3 81 1.9 ENE 15 20 8 11 1019.8 1018.0 0.0
21/09:30pm 18.0 15.7 14.1 78 2.3 ENE 19 26 10 14 1019.9 1018.1 0.0
21/09:00pm 18.7 16.2 13.6 72 3.0 ENE 19 26 10 14 1020.2 1018.4 0.0
21/08:30pm 19.4 16.9 13.6 69 3.4 NE 19 26 10 14 1020.2 1018.4 0.0
21/08:00pm 19.7 17.2 13.4 67 3.7 NE 19 22 10 12 1019.9 1018.1 0.0
21/07:30pm 20.1 17.0 13.3 65 4.0 NE 22 28 12 15 1019.8 1018.0 0.0
21/07:00pm 20.5 17.2 12.7 61 4.5 NNE 22 32 12 17 1019.7 1017.9 0.0
21/06:30pm 21.0 17.4 11.9 56 5.2 NE 22 32 12 17 1019.2 1017.3 0.0
21/06:00pm 22.8 18.7 11.5 49 6.4 NNE 24 32 13 17 1018.4 1016.6 0.0
21/05:30pm 24.0 20.5 10.3 42 7.7 NNE 19 24 10 13 1017.9 1016.1 0.0
21/05:00pm 24.7 20.5 9.8 39 8.3 NE 22 28 12 15 1017.7 1015.9 0.0
21/04:30pm 25.2 21.3 9.5 37 8.8 NNE 20 28 11 15 1017.4 1015.6 0.0
21/04:00pm 25.9 22.2 9.3 35 9.3 NNE 19 24 10 13 1017.4 1015.6 0.0
21/03:30pm 26.3 22.2 8.8 33 9.7 NE 20 26 11 14 1017.3 1015.5 0.0
21/03:00pm 26.5 22.0 8.5 32 9.9 NE 22 32 12 17 1017.3 1015.5 0.0
21/02:30pm 26.7 22.5 8.2 31 10.2 NE 20 28 11 15 1017.3 1015.5 0.0
21/02:00pm 26.7 21.7 8.2 31 10.2 ENE 24 33 13 18 1017.6 1015.8 0.0
21/01:30pm 26.2 22.1 8.7 33 9.7 NE 20 32 11 17 1017.9 1016.1 0.0
21/01:00pm 26.1 21.5 8.1 32 9.8 NE 22 32 12 17 1018.4 1016.6 0.0
21/12:30pm 25.2 20.1 7.8 33 9.4 NE 24 37 13 20 1019.0 1017.1 0.0
21/12:00pm 26.3 20.5 7.8 31 10.1 NE 28 41 15 22 1019.2 1017.3 0.0
21/11:30am 25.2 20.1 7.8 33 9.4 NE 24 35 13 19 1019.6 1017.8 0.0
21/11:00am 24.3 18.8 7.4 34 9.0 ENE 26 33 14 18 1020.2 1018.4 0.0
21/10:30am 22.9 17.4 7.4 37 8.2 ENE 26 35 14 19 1020.7 1018.9 0.0
21/10:00am 22.7 16.5 7.7 38 8.0 ENE 30 43 16 23 1020.9 1019.1 0.0
21/09:30am 22.6 16.8 8.0 39 7.8 ENE 28 39 15 21 1020.9 1019.1 0.0
21/09:00am 21.2 15.8 8.1 43 7.0 ENE 26 41 14 22 1020.9 1019.1 0.0
21/08:30am 20.2 15.2 8.2 46 6.4 ENE 24 35 13 19 1020.7 1018.9 0.0
21/08:00am 19.9 15.3 8.3 47 6.1 ENE 22 32 12 17 1020.6 1018.8 0.0
21/07:30am 18.4 15.1 8.1 51 5.4 ENE 15 20 8 11 1020.2 1018.4 0.0
21/07:00am 18.3 14.2 7.7 50 5.5 E 19 28 10 15 1019.8 1018.0 0.0
21/06:30am 18.3 14.1 7.4 49 5.6 ENE 19 24 10 13 1019.4 1017.6 0.0
21/06:00am 18.1 13.9 7.5 50 5.5 E 19 26 10 14 1019.0 1017.1 0.0
21/05:30am 18.2 14.0 7.3 49 5.6 E 19 28 10 15 1018.7 1016.8 0.0
21/05:00am 18.0 13.7 7.1 49 5.6 ENE 19 26 10 14 1018.4 1016.6 0.0
21/04:30am 17.8 14.3 7.2 50 5.4 E 15 20 8 11 1018.4 1016.6 0.0
21/04:00am 18.1 14.7 7.5 50 5.5 ENE 15 22 8 12 1018.4 1016.6 0.0
21/03:30am 18.3 14.5 7.7 50 5.5 ENE 17 22 9 12 1018.6 1016.7 0.0
21/03:00am 18.2 14.2 8.2 52 5.2 ENE 19 24 10 13 1018.8 1016.9 0.0
21/02:30am 18.3 14.3 8.3 52 5.3 ENE 19 26 10 14 1018.7 1016.8 0.0
21/02:00am 18.5 14.9 8.2 51 5.4 ENE 17 22 9 12 1018.9 1017.0 0.0
21/01:30am 18.4 15.1 8.1 51 5.4 E 15 19 8 10 1019.0 1017.1 0.0
21/01:00am 18.1 15.0 8.7 54 5.0 ENE 15 17 8 9 1019.1 1017.2 0.0
21/12:30am 18.9 15.5 9.1 53 5.2 ENE 17 20 9 11 1019.2 1017.3 0.0
21/12:00am 18.2 15.6 9.5 57 4.7 ENE 13 15 7 8 1019.4 1017.6 0.0
 
Date/Time
WST
Temp
°C
App
Temp
°C
Dew
Point
Rel
Hum
%
Delta-T
°C
Wind Press
QNH
hPa
Press
MSL
hPa
Rain
since 9 am
mm
Dir
 
Spd
km/h
Gust
km/h
Spd
kts
Gust
kts
20/11:30pm 18.2 16.5 9.8 58 4.5 E 9 13 5 7 1019.7 1017.9 0.0
20/11:00pm 18.8 16.5 10.4 58 4.6 ENE 13 15 7 8 1019.7 1017.9 0.0
20/10:30pm 19.1 17.3 10.9 59 4.5 ENE 11 13 6 7 1019.7 1017.9 0.0
20/10:00pm 19.8 18.1 11.3 58 4.8 NE 11 15 6 8 1019.8 1018.0 0.0
20/09:30pm 20.0 18.4 11.7 59 4.7 ENE 11 13 6 7 1019.8 1018.0 0.0
20/09:00pm 20.1 18.9 11.6 58 4.8 ENE 9 11 5 6 1019.7 1017.9 0.0
20/08:30pm 20.2 18.6 11.4 57 5.0 ENE 11 13 6 7 1019.8 1018.0 0.0
20/08:00pm 21.1 19.4 11.2 53 5.6 NE 11 13 6 7 1019.6 1017.8 0.0
20/07:30pm 22.4 19.5 10.9 48 6.5 ENE 17 20 9 11 1019.3 1017.4 0.0
20/07:00pm 23.1 20.4 10.2 44 7.2 ENE 15 19 8 10 1019.2 1017.3 0.0
20/06:30pm 23.7 21.7 10.0 42 7.7 ENE 11 15 6 8 1018.8 1016.9 0.0
20/06:00pm 24.1 21.9 10.7 43 7.6 ENE 13 15 7 8 1018.3 1016.5 0.0
20/05:30pm 24.7 22.8 10.6 41 8.0 ENE 11 15 6 8 1018.1 1016.3 0.0
20/05:00pm 25.4 23.1 10.4 39 8.5 ENE 13 17 7 9 1017.7 1015.9 0.0
20/04:30pm 26.0 22.9 10.2 37 9.0 NE 17 20 9 11 1017.4 1015.6 0.0
20/04:00pm 26.7 24.4 10.4 36 9.3 ENE 13 17 7 9 1017.2 1015.3 0.0
20/03:30pm 27.0 24.3 10.2 35 9.6 ENE 15 19 8 10 1017.1 1015.2 0.0
20/03:00pm 27.0 25.2 10.7 36 9.4 ENE 11 20 6 11 1017.2 1015.3 0.0
20/02:30pm 26.6 25.1 10.7 37 9.1 N 9 15 5 8 1017.2 1015.3 0.0
20/02:00pm 26.2 25.2 10.4 37 9.0 E 6 9 3 5 1017.1 1015.2 0.0
20/01:30pm 27.1 24.6 11.2 37 9.2 NE 15 20 8 11 1017.4 1015.6 0.0
20/01:00pm 25.9 24.8 10.5 38 8.8 ENE 7 17 4 9 1017.7 1015.9 0.0
20/12:30pm 26.2 24.0 10.8 38 8.8 NE 13 20 7 11 1018.1 1016.3 0.0
20/12:00pm 26.1 23.8 10.3 37 9.0 NE 13 19 7 10 1018.6 1016.7 0.0
20/11:30am 25.0 21.5 10.1 39 8.4 NE 19 26 10 14 1018.8 1016.9 0.0
20/11:00am 24.3 20.4 9.5 39 8.2 NE 20 28 11 15 1019.2 1017.3 0.0
20/10:30am 23.9 19.1 8.7 38 8.3 NE 24 28 13 15 1019.4 1017.6 0.0
20/10:00am 23.0 19.4 10.4 45 7.0 ENE 20 26 11 14 1019.9 1018.1 0.0
20/09:30am 22.3 18.8 10.8 48 6.5 ENE 20 28 11 15 1019.8 1018.0 0.0
20/09:00am 21.8 18.4 11.2 51 6.0 ENE 20 26 11 14 1019.5 1017.7 0.0
20/08:30am 20.7 20.0 13.2 62 4.4 E 9 15 5 8 1019.5 1017.7 0.0
20/08:00am 18.5 18.3 12.9 70 3.2 ENE 6 7 3 4 1019.2 1017.3 0.0
20/07:30am 16.4 16.7 15.1 92 0.8 ENE 7 7 4 4 1019.2 1017.3 0.0
20/07:00am 15.1 14.9 14.8 98 0.2 ENE 9 9 5 5 1018.7 1016.8 0.0
20/06:30am 15.4 15.4 15.1 98 0.2 E 9 11 5 6 1018.2 1016.4 0.0
20/06:00am 15.4 15.7 15.1 98 0.2 E 7 9 4 5 1018.1 1016.3 0.0
20/05:30am 15.3 15.8 15.0 98 0.2 ENE 6 7 3 4 1018.1 1016.3 0.0
20/05:00am 14.9 15.1 14.6 98 0.2 E 7 9 4 5 1017.9 1016.1 0.0
20/04:30am 14.9 15.1 14.6 98 0.2 NE 7 9 4 5 1017.9 1016.1 0.0
20/04:00am 14.6 14.8 14.3 98 0.2 ENE 6 9 3 5 1017.7 1015.9 0.0
20/03:30am 14.9 16.0 14.6 98 0.2 ENE 2 7 1 4 1017.6 1015.8 0.0
20/03:00am 14.8 14.9 14.5 98 0.2 NE 7 7 4 4 1017.6 1015.8 0.0
20/02:30am 15.3 16.2 15.0 98 0.2 NNE 4 7 2 4 1017.7 1015.9 0.0
20/02:00am 15.7 15.2 14.9 95 0.5 ESE 11 17 6 9 1017.8 1016.0 0.0
20/01:30am 15.6 16.0 15.3 98 0.2 NE 7 9 4 5 1018.2 1016.4 0.0
20/01:00am 16.8 15.7 13.1 79 2.1 E 11 13 6 7 1018.3 1016.5 0.0
20/12:30am 18.0 16.7 13.7 76 2.5 ESE 13 17 7 9 1018.2 1016.4 0.0
20/12:00am 17.7 17.3 14.0 79 2.2 E 9 13 5 7 1018.2 1016.4 0.0
 
Date/Time
WST
Temp
°C
App
Temp
°C
Dew
Point
Rel
Hum
%
Delta-T
°C
Wind Press
QNH
hPa
Press
MSL
hPa
Rain
since 9 am
mm
Dir
 
Spd
km/h
Gust
km/h
Spd
kts
Gust
kts
19/11:30pm 17.7 17.2 14.8 83 1.7 E 11 13 6 7 1018.3 1016.5 0.0
19/11:00pm 18.7 17.2 14.2 75 2.6 E 15 17 8 9 1018.3 1016.5 0.0
19/10:30pm 18.9 18.2 14.2 74 2.8 E 11 15 6 8 1018.2 1016.4 0.0
19/10:00pm 19.2 18.9 13.2 68 3.5 SE 7 9 4 5 1018.2 1016.4 0.0
19/09:30pm 20.6 18.7 13.1 62 4.4 ESE 15 19 8 10 1018.2 1016.4 0.0
19/09:00pm 20.9 18.9 13.8 64 4.2 E 17 26 9 14 1018.2 1016.4 0.0
19/08:30pm 21.2 20.8 15.3 69 3.6 ESE 11 13 6 7 1018.0 1016.2 0.0
19/08:00pm 21.4 20.6 12.8 58 5.0 SE 9 11 5 6 1017.8 1016.0 0.0

Other Formats:

Comma delimited format used in spreadsheet applications
http://www.bom.gov.au/fwo/IDW60801/IDW60801.94316.axf

JavaScript Object Notation format (JSON) in row-major order
http://www.bom.gov.au/fwo/IDW60801/IDW60801.94316.json